createdAt,value
2018-09-03T00:00:23.604Z,64.20
2018-09-03T00:00:55.485Z,63.40
2018-09-03T00:01:27.843Z,63.50
2018-09-03T00:01:59.665Z,63.50
2018-09-03T00:02:31.475Z,63.50
2018-09-03T00:03:03.243Z,63.50
2018-09-03T00:03:35.073Z,63.40
2018-09-03T00:04:07.277Z,63.40
2018-09-03T00:04:39.441Z,63.20
2018-09-03T00:05:11.236Z,63.40
2018-09-03T00:05:43.121Z,63.50
2018-09-03T00:06:15.065Z,63.10
2018-09-03T00:06:47.003Z,63.00
2018-09-03T00:07:19.004Z,62.90
2018-09-03T00:07:50.837Z,63.30
2018-09-03T00:08:22.876Z,63.50
2018-09-03T00:08:54.662Z,63.40
2018-09-03T00:09:26.447Z,63.40
2018-09-03T00:09:58.349Z,63.40
2018-09-03T00:10:30.257Z,63.20
2018-09-03T00:11:02.269Z,63.50
2018-09-03T00:11:34.091Z,63.40
2018-09-03T00:12:05.968Z,63.40
2018-09-03T00:12:37.859Z,63.50
2018-09-03T00:13:09.758Z,63.50
2018-09-03T00:13:41.761Z,63.40
2018-09-03T00:14:13.707Z,63.40
2018-09-03T00:14:45.528Z,63.40
2018-09-03T00:15:17.308Z,63.40
2018-09-03T00:15:49.120Z,63.40
2018-09-03T00:16:21.291Z,63.30
2018-09-03T00:16:53.827Z,63.20
2018-09-03T00:17:25.679Z,63.30
2018-09-03T00:17:57.667Z,63.40
2018-09-03T00:18:29.719Z,63.30
2018-09-03T00:19:01.585Z,63.40
2018-09-03T00:19:33.528Z,63.30
2018-09-03T00:20:05.390Z,63.40
2018-09-03T00:20:37.393Z,63.40
2018-09-03T00:21:09.291Z,63.50
2018-09-03T00:21:41.127Z,63.40
2018-09-03T00:22:13.101Z,63.50
2018-09-03T00:22:45.230Z,63.50
2018-09-03T00:23:17.017Z,63.50
2018-09-03T00:23:48.945Z,63.40
2018-09-03T00:24:20.930Z,63.30
2018-09-03T00:24:53.095Z,63.30
2018-09-03T00:25:24.936Z,63.40
2018-09-03T00:25:56.920Z,64.00
2018-09-03T00:26:28.739Z,63.40
2018-09-03T00:27:00.954Z,63.30
2018-09-03T00:27:32.977Z,64.00
2018-09-03T00:28:04.915Z,63.40
2018-09-03T00:28:36.842Z,63.50
2018-09-03T00:29:08.627Z,63.40
2018-09-03T00:29:40.416Z,63.40
2018-09-03T00:30:12.273Z,63.40
2018-09-03T00:30:44.217Z,63.50
2018-09-03T00:31:16.158Z,63.40
2018-09-03T00:31:47.953Z,63.50
2018-09-03T00:32:19.886Z,63.50
2018-09-03T00:32:51.836Z,63.30
2018-09-03T00:33:23.637Z,63.40
2018-09-03T00:33:55.552Z,63.40
2018-09-03T00:34:27.337Z,63.20
2018-09-03T00:34:59.149Z,63.30
2018-09-03T00:35:31.043Z,63.30
2018-09-03T00:36:02.997Z,63.30
2018-09-03T00:36:34.860Z,63.10
2018-09-03T00:37:07.079Z,63.20
2018-09-03T00:37:38.891Z,63.20
2018-09-03T00:38:10.758Z,63.30
2018-09-03T00:38:42.579Z,63.30
2018-09-03T00:39:14.617Z,63.40
2018-09-03T00:39:46.528Z,63.10
2018-09-03T00:40:18.490Z,63.70
2018-09-03T00:40:50.338Z,63.20
2018-09-03T00:41:22.289Z,63.20
2018-09-03T00:41:54.130Z,63.10
2018-09-03T00:42:26.228Z,62.90
2018-09-03T00:42:58.022Z,63.30
2018-09-03T00:43:30.153Z,63.00
2018-09-03T00:44:02.123Z,63.20
2018-09-03T00:44:33.920Z,63.30
2018-09-03T00:45:05.755Z,63.30
2018-09-03T00:45:37.889Z,63.30
2018-09-03T00:46:09.717Z,63.30
2018-09-03T00:46:41.503Z,63.40
2018-09-03T00:47:13.311Z,63.30
2018-09-03T00:47:45.321Z,63.40
2018-09-03T00:48:17.121Z,63.30
2018-09-03T00:48:48.974Z,63.30
2018-09-03T00:49:20.811Z,63.40
2018-09-03T00:49:52.653Z,63.20
2018-09-03T00:50:24.581Z,63.30
2018-09-03T00:50:56.531Z,63.30
2018-09-03T00:51:28.398Z,63.30
2018-09-03T00:52:00.283Z,63.40
2018-09-03T00:52:32.111Z,63.40
2018-09-03T00:53:03.905Z,63.30
2018-09-03T00:53:35.742Z,63.20
2018-09-03T00:54:07.622Z,63.40
2018-09-03T00:54:39.408Z,63.40
2018-09-03T00:55:11.342Z,63.40
2018-09-03T00:55:43.233Z,63.40
2018-09-03T00:56:15.064Z,63.30
2018-09-03T00:56:46.932Z,62.60
2018-09-03T00:57:19.217Z,63.30
2018-09-03T00:57:51.059Z,63.40
2018-09-03T00:58:22.852Z,63.40
2018-09-03T00:58:54.703Z,63.40
2018-09-03T00:59:26.576Z,63.40
2018-09-03T00:59:58.443Z,63.30
2018-09-03T01:00:30.656Z,63.10
2018-09-03T01:01:02.530Z,63.30
2018-09-03T01:01:34.553Z,63.10
2018-09-03T01:02:06.352Z,63.20
2018-09-03T01:02:38.314Z,63.10
2018-09-03T01:03:10.113Z,63.30
2018-09-03T01:03:41.914Z,63.10
2018-09-03T01:04:13.764Z,63.10
2018-09-03T01:04:45.895Z,63.00
2018-09-03T01:05:17.786Z,63.20
2018-09-03T01:05:49.779Z,63.10
2018-09-03T01:06:21.714Z,62.90
2018-09-03T01:06:53.955Z,62.90
2018-09-03T01:07:25.986Z,63.00
2018-09-03T01:07:57.795Z,63.30
2018-09-03T01:08:29.765Z,63.00
2018-09-03T01:09:01.586Z,63.00
2018-09-03T01:09:33.669Z,62.90
2018-09-03T01:10:05.498Z,63.10
2018-09-03T01:10:37.454Z,63.10
2018-09-03T01:11:09.304Z,63.20
2018-09-03T01:11:41.126Z,63.20
2018-09-03T01:12:12.969Z,63.30
2018-09-03T01:12:44.813Z,63.10
2018-09-03T01:13:16.576Z,63.10
2018-09-03T01:13:48.535Z,63.10
2018-09-03T01:14:20.360Z,63.10
2018-09-03T01:14:52.447Z,63.10
2018-09-03T01:15:24.435Z,63.10
2018-09-03T01:15:56.259Z,63.10
2018-09-03T01:16:28.198Z,63.00
2018-09-03T01:17:00.065Z,63.00
2018-09-03T01:17:32.225Z,62.90
2018-09-03T01:18:04.045Z,62.90
2018-09-03T01:18:35.830Z,62.30
2018-09-03T01:19:08.264Z,62.90
2018-09-03T01:19:40.085Z,62.70
2018-09-03T01:20:11.896Z,62.90
2018-09-03T01:20:43.703Z,63.00
2018-09-03T01:21:15.614Z,63.00
2018-09-03T01:21:47.588Z,62.90
2018-09-03T01:22:19.415Z,63.00
2018-09-03T01:22:51.526Z,63.00
2018-09-03T01:23:23.320Z,63.00
2018-09-03T01:23:55.395Z,63.30
2018-09-03T01:24:27.234Z,63.00
2018-09-03T01:24:59.065Z,63.00
2018-09-03T01:25:30.856Z,63.00
2018-09-03T01:26:02.826Z,63.00
2018-09-03T01:26:34.610Z,63.00
2018-09-03T01:27:06.425Z,63.00
2018-09-03T01:27:38.226Z,63.00
2018-09-03T01:28:10.338Z,63.00
2018-09-03T01:28:42.100Z,63.10
2018-09-03T01:29:13.939Z,63.00
2018-09-03T01:29:45.752Z,63.00
2018-09-03T01:30:18.107Z,63.10
2018-09-03T01:30:50.059Z,63.10
2018-09-03T01:31:21.936Z,63.10
2018-09-03T01:31:53.737Z,63.20
2018-09-03T01:32:25.649Z,63.20
2018-09-03T01:32:57.627Z,63.10
2018-09-03T01:33:29.439Z,63.20
2018-09-03T01:34:01.357Z,63.10
2018-09-03T01:34:33.386Z,63.20
2018-09-03T01:35:05.259Z,63.10
2018-09-03T01:35:37.076Z,63.60
2018-09-03T01:36:09.095Z,63.10
2018-09-03T01:36:41.076Z,63.20
2018-09-03T01:37:12.997Z,63.10
2018-09-03T01:37:44.799Z,63.10
2018-09-03T01:38:16.674Z,63.80
2018-09-03T01:38:48.617Z,63.00
2018-09-03T01:39:20.419Z,63.80
2018-09-03T01:39:52.248Z,63.00
2018-09-03T01:40:24.061Z,63.00
2018-09-03T01:40:55.884Z,63.00
2018-09-03T01:41:27.708Z,63.00
2018-09-03T01:41:59.565Z,63.00
2018-09-03T01:42:31.634Z,63.10
2018-09-03T01:43:04.014Z,63.10
2018-09-03T01:43:35.923Z,63.00
2018-09-03T01:44:07.682Z,62.80
2018-09-03T01:44:39.644Z,63.00
2018-09-03T01:45:11.594Z,63.00
2018-09-03T01:45:43.393Z,62.90
2018-09-03T01:46:15.304Z,63.00
2018-09-03T01:46:47.172Z,62.90
2018-09-03T01:47:19.053Z,62.90
2018-09-03T01:47:51.022Z,62.80
2018-09-03T01:48:22.904Z,62.80
2018-09-03T01:48:54.754Z,62.80
2018-09-03T01:49:26.912Z,62.70
2018-09-03T01:49:58.896Z,62.70
2018-09-03T01:50:30.702Z,62.70
2018-09-03T01:51:02.523Z,63.50
2018-09-03T01:51:34.574Z,62.50
2018-09-03T01:52:06.392Z,62.60
2018-09-03T01:52:38.181Z,62.60
2018-09-03T01:53:09.976Z,62.70
2018-09-03T01:53:41.872Z,62.70
2018-09-03T01:54:13.665Z,62.80
2018-09-03T01:54:45.612Z,62.80
2018-09-03T01:55:17.394Z,62.70
2018-09-03T01:55:49.203Z,62.70
2018-09-03T01:56:21.014Z,62.70
2018-09-03T01:56:52.827Z,62.70
2018-09-03T01:57:24.653Z,62.70
2018-09-03T01:57:56.444Z,62.70
2018-09-03T01:58:28.329Z,62.70
2018-09-03T01:59:00.181Z,62.70
2018-09-03T01:59:31.964Z,62.90
2018-09-03T02:00:03.805Z,62.60
2018-09-03T02:00:35.878Z,62.60
2018-09-03T02:01:07.680Z,62.50
2018-09-03T02:01:39.608Z,62.60
2018-09-03T02:02:11.409Z,62.50
2018-09-03T02:02:43.374Z,62.50
2018-09-03T02:03:15.426Z,62.40
2018-09-03T02:03:47.429Z,62.60
2018-09-03T02:04:19.208Z,62.50
2018-09-03T02:04:51.032Z,62.50
2018-09-03T02:05:22.851Z,62.50
2018-09-03T02:05:54.740Z,62.40
2018-09-03T02:06:26.683Z,62.50
2018-09-03T02:06:58.540Z,62.60
2018-09-03T02:07:30.301Z,62.40
2018-09-03T02:08:02.129Z,62.40
2018-09-03T02:08:33.931Z,62.40
2018-09-03T02:09:05.747Z,62.50
2018-09-03T02:09:37.590Z,62.40
2018-09-03T02:10:09.488Z,62.40
2018-09-03T02:10:41.318Z,62.50
2018-09-03T02:11:13.098Z,62.40
2018-09-03T02:11:45.189Z,62.30
2018-09-03T02:12:16.965Z,62.40
2018-09-03T02:12:48.878Z,62.30
2018-09-03T02:13:20.721Z,62.50
2018-09-03T02:13:52.507Z,62.30
2018-09-03T02:14:24.316Z,62.40
2018-09-03T02:14:56.178Z,62.40
2018-09-03T02:15:28.135Z,62.50
2018-09-03T02:16:00.119Z,62.40
2018-09-03T02:16:32.309Z,62.70
2018-09-03T02:17:04.090Z,62.50
2018-09-03T02:17:35.917Z,62.40
2018-09-03T02:18:07.928Z,62.50
2018-09-03T02:18:39.978Z,62.40
2018-09-03T02:19:12.048Z,62.50
2018-09-03T02:19:43.928Z,62.40
2018-09-03T02:20:15.707Z,62.40
2018-09-03T02:20:47.571Z,62.40
2018-09-03T02:21:19.372Z,62.30
2018-09-03T02:21:51.351Z,62.40
2018-09-03T02:22:23.168Z,62.40
2018-09-03T02:22:54.960Z,62.50
2018-09-03T02:23:26.763Z,62.40
2018-09-03T02:23:58.836Z,62.50
2018-09-03T02:24:30.668Z,62.40
2018-09-03T02:25:02.543Z,62.50
2018-09-03T02:25:34.314Z,62.50
2018-09-03T02:26:06.233Z,62.30
2018-09-03T02:26:38.038Z,62.40
2018-09-03T02:27:09.877Z,62.30
2018-09-03T02:27:41.679Z,62.40
2018-09-03T02:28:13.536Z,62.40
2018-09-03T02:28:45.332Z,62.40
2018-09-03T02:29:17.166Z,62.40
2018-09-03T02:29:48.952Z,62.60
2018-09-03T02:30:20.844Z,62.40
2018-09-03T02:30:52.956Z,62.40
2018-09-03T02:31:24.825Z,62.30
2018-09-03T02:31:56.833Z,62.40
2018-09-03T02:32:28.835Z,62.30
2018-09-03T02:33:00.682Z,62.40
2018-09-03T02:33:32.486Z,62.30
2018-09-03T02:34:04.475Z,62.30
2018-09-03T02:34:36.361Z,62.40
2018-09-03T02:35:08.566Z,62.30
2018-09-03T02:35:40.415Z,62.30
2018-09-03T02:36:12.275Z,62.30
2018-09-03T02:36:44.377Z,62.50
2018-09-03T02:37:16.330Z,62.40
2018-09-03T02:37:48.169Z,63.30
2018-09-03T02:38:20.187Z,62.40
2018-09-03T02:38:51.988Z,62.30
2018-09-03T02:39:23.799Z,62.40
2018-09-03T02:39:55.645Z,62.30
2018-09-03T02:40:27.483Z,62.40
2018-09-03T02:40:59.317Z,62.30
2018-09-03T02:41:31.185Z,62.30
2018-09-03T02:42:03.094Z,62.20
2018-09-03T02:42:34.929Z,62.30
2018-09-03T02:43:06.825Z,62.30
2018-09-03T02:43:38.637Z,62.30
2018-09-03T02:44:10.657Z,62.30
2018-09-03T02:44:42.464Z,62.30
2018-09-03T02:45:14.365Z,62.40
2018-09-03T02:45:46.216Z,62.30
2018-09-03T02:46:17.993Z,62.30
2018-09-03T02:46:49.913Z,62.20
2018-09-03T02:47:21.880Z,62.20
2018-09-03T02:47:53.729Z,62.30
2018-09-03T02:48:25.654Z,62.20
2018-09-03T02:48:57.645Z,62.30
2018-09-03T02:49:29.517Z,62.30
2018-09-03T02:50:01.544Z,62.30
2018-09-03T02:50:33.865Z,62.30
2018-09-03T02:51:05.729Z,62.30
2018-09-03T02:51:37.534Z,62.10
2018-09-03T02:52:09.345Z,62.30
2018-09-03T02:52:41.204Z,62.10
2018-09-03T02:53:13.304Z,62.20
2018-09-03T02:53:45.181Z,62.10
2018-09-03T02:54:17.128Z,62.10
2018-09-03T02:54:48.939Z,62.10
2018-09-03T02:55:20.984Z,62.10
2018-09-03T02:55:52.791Z,62.00
2018-09-03T02:56:24.708Z,62.00
2018-09-03T02:56:56.584Z,61.90
2018-09-03T02:57:28.434Z,62.00
2018-09-03T02:58:00.396Z,62.00
2018-09-03T02:58:32.249Z,62.00
2018-09-03T02:59:04.122Z,61.90
2018-09-03T02:59:36.029Z,62.10
2018-09-03T03:00:08.055Z,62.00
2018-09-03T03:00:39.901Z,62.00
2018-09-03T03:01:11.882Z,62.00
2018-09-03T03:01:43.778Z,62.00
2018-09-03T03:02:15.598Z,62.60
2018-09-03T03:02:47.399Z,61.90
2018-09-03T03:03:19.674Z,62.00
2018-09-03T03:03:51.618Z,61.90
2018-09-03T03:04:23.425Z,61.90
2018-09-03T03:04:55.467Z,62.00
2018-09-03T03:05:27.308Z,61.80
2018-09-03T03:05:59.196Z,62.50
2018-09-03T03:06:31.006Z,61.90
2018-09-03T03:07:02.835Z,61.80
2018-09-03T03:07:34.609Z,61.80
2018-09-03T03:08:06.421Z,61.80
2018-09-03T03:08:38.236Z,61.80
2018-09-03T03:09:10.061Z,61.90
2018-09-03T03:09:41.822Z,61.90
2018-09-03T03:10:13.635Z,61.90
2018-09-03T03:10:45.568Z,61.90
2018-09-03T03:11:17.676Z,62.00
2018-09-03T03:11:49.656Z,61.90
2018-09-03T03:12:21.606Z,62.00
2018-09-03T03:12:53.445Z,62.10
2018-09-03T03:13:25.276Z,62.10
2018-09-03T03:13:57.050Z,62.70
2018-09-03T03:14:28.998Z,62.00
2018-09-03T03:15:00.812Z,62.00
2018-09-03T03:15:32.705Z,62.10
2018-09-03T03:16:04.667Z,61.80
2018-09-03T03:16:36.535Z,61.90
2018-09-03T03:17:08.417Z,61.90
2018-09-03T03:17:40.386Z,61.90
2018-09-03T03:18:12.217Z,62.10
2018-09-03T03:18:44.206Z,61.80
2018-09-03T03:19:16.006Z,61.80
2018-09-03T03:19:48.075Z,61.70
2018-09-03T03:20:19.941Z,61.80
2018-09-03T03:20:51.766Z,61.70
2018-09-03T03:21:23.582Z,61.70
2018-09-03T03:21:55.439Z,61.80
2018-09-03T03:22:27.205Z,61.80
2018-09-03T03:22:59.045Z,61.80
2018-09-03T03:23:30.860Z,61.80
2018-09-03T03:24:02.817Z,61.80
2018-09-03T03:24:34.661Z,61.80
2018-09-03T03:25:06.515Z,61.90
2018-09-03T03:25:38.346Z,62.20
2018-09-03T03:26:10.340Z,61.20
2018-09-03T03:26:42.365Z,61.80
2018-09-03T03:27:14.246Z,61.90
2018-09-03T03:27:46.177Z,61.90
2018-09-03T03:28:18.171Z,61.80
2018-09-03T03:28:50.006Z,61.80
2018-09-03T03:29:22.085Z,61.80
2018-09-03T03:29:53.967Z,61.70
2018-09-03T03:30:25.977Z,61.80
2018-09-03T03:30:57.970Z,61.80
2018-09-03T03:31:29.809Z,61.80
2018-09-03T03:32:01.646Z,61.80
2018-09-03T03:32:33.645Z,61.80
2018-09-03T03:33:05.557Z,61.80
2018-09-03T03:33:37.495Z,61.70
2018-09-03T03:34:09.300Z,61.70
2018-09-03T03:34:41.156Z,61.60
2018-09-03T03:35:13.128Z,61.60
2018-09-03T03:35:44.997Z,61.60
2018-09-03T03:36:16.815Z,61.60
2018-09-03T03:36:48.748Z,61.60
2018-09-03T03:37:20.577Z,61.60
2018-09-03T03:37:52.378Z,61.70
2018-09-03T03:38:24.216Z,61.70
2018-09-03T03:38:56.035Z,61.60
2018-09-03T03:39:27.845Z,61.50
2018-09-03T03:39:59.911Z,61.60
2018-09-03T03:40:31.708Z,61.60
2018-09-03T03:41:03.598Z,61.60
2018-09-03T03:41:35.551Z,61.50
2018-09-03T03:42:07.364Z,61.50
2018-09-03T03:42:39.326Z,61.60
2018-09-03T03:43:11.109Z,61.60
2018-09-03T03:43:42.914Z,61.50
2018-09-03T03:44:14.726Z,61.60
2018-09-03T03:44:46.838Z,61.60
2018-09-03T03:45:18.649Z,61.60
2018-09-03T03:45:50.451Z,61.60
2018-09-03T03:46:22.247Z,61.60
2018-09-03T03:46:54.195Z,61.60
2018-09-03T03:47:26.277Z,61.60
2018-09-03T03:47:58.102Z,61.60
2018-09-03T03:48:29.970Z,61.60
2018-09-03T03:49:01.980Z,61.70
2018-09-03T03:49:33.912Z,61.70
2018-09-03T03:50:05.733Z,62.50
2018-09-03T03:50:37.582Z,62.20
2018-09-03T03:51:09.613Z,62.30
2018-09-03T03:51:41.444Z,61.50
2018-09-03T03:52:13.388Z,61.40
2018-09-03T03:52:45.290Z,61.60
2018-09-03T03:53:17.086Z,61.60
2018-09-03T03:53:49.053Z,61.60
2018-09-03T03:54:20.851Z,61.70
2018-09-03T03:54:52.773Z,61.50
2018-09-03T03:55:24.763Z,61.60
2018-09-03T03:55:56.709Z,61.50
2018-09-03T03:56:28.620Z,61.60
2018-09-03T03:57:00.428Z,61.70
2018-09-03T03:57:32.254Z,61.60
2018-09-03T03:58:04.026Z,61.60
2018-09-03T03:58:35.843Z,61.60
2018-09-03T03:59:07.636Z,61.50
2018-09-03T03:59:39.676Z,61.50
2018-09-03T04:00:11.687Z,61.50
2018-09-03T04:00:43.460Z,61.50
2018-09-03T04:01:15.516Z,62.30
2018-09-03T04:01:47.418Z,61.60
2018-09-03T04:02:19.257Z,61.50
2018-09-03T04:02:51.053Z,61.50
2018-09-03T04:03:22.850Z,61.50
2018-09-03T04:03:54.627Z,61.50
2018-09-03T04:04:26.446Z,61.20
2018-09-03T04:04:58.242Z,61.40
2018-09-03T04:05:30.032Z,61.40
2018-09-03T04:06:01.821Z,61.50
2018-09-03T04:06:33.607Z,61.50
2018-09-03T04:07:05.631Z,61.50
2018-09-03T04:07:37.432Z,61.40
2018-09-03T04:08:09.229Z,61.30
2018-09-03T04:08:41.042Z,62.20
2018-09-03T04:09:12.822Z,61.40
2018-09-03T04:09:44.661Z,61.50
2018-09-03T04:10:16.452Z,61.40
2018-09-03T04:10:48.261Z,61.60
2018-09-03T04:11:20.052Z,61.60
2018-09-03T04:11:51.855Z,61.50
2018-09-03T04:12:23.683Z,61.70
2018-09-03T04:12:55.478Z,61.60
2018-09-03T04:13:27.407Z,61.50
2018-09-03T04:13:59.237Z,61.60
2018-09-03T04:14:31.028Z,61.60
2018-09-03T04:15:02.941Z,61.60
2018-09-03T04:15:34.739Z,62.30
2018-09-03T04:16:06.529Z,61.60
2018-09-03T04:16:38.518Z,61.70
2018-09-03T04:17:10.318Z,61.60
2018-09-03T04:17:42.143Z,61.70
2018-09-03T04:18:13.929Z,61.60
2018-09-03T04:18:45.727Z,61.60
2018-09-03T04:19:17.701Z,61.60
2018-09-03T04:19:49.499Z,61.50
2018-09-03T04:20:21.292Z,61.60
2018-09-03T04:20:53.238Z,61.50
2018-09-03T04:21:25.290Z,61.60
2018-09-03T04:21:57.085Z,61.50
2018-09-03T04:22:28.862Z,61.60
2018-09-03T04:23:00.869Z,61.60
2018-09-03T04:23:32.810Z,61.60
2018-09-03T04:24:04.604Z,61.80
2018-09-03T04:24:36.534Z,61.80
2018-09-03T04:25:08.433Z,61.70
2018-09-03T04:25:40.252Z,63.20
2018-09-03T04:26:12.269Z,63.30
2018-09-03T04:26:44.062Z,62.50
2018-09-03T04:27:15.885Z,62.60
2018-09-03T04:27:47.707Z,63.40
2018-09-03T04:28:19.486Z,64.50
2018-09-03T04:28:51.541Z,64.70
2018-09-03T04:29:23.469Z,64.40
2018-09-03T04:29:55.271Z,64.30
2018-09-03T04:30:27.105Z,64.80
2018-09-03T04:30:58.894Z,63.70
2018-09-03T04:31:30.761Z,64.20
2018-09-03T04:32:02.612Z,64.50
2018-09-03T04:32:34.409Z,64.00
2018-09-03T04:33:06.389Z,64.70
2018-09-03T04:33:38.197Z,65.10
2018-09-03T04:34:09.983Z,64.40
2018-09-03T04:34:41.771Z,65.50
2018-09-03T04:35:13.561Z,65.40
2018-09-03T04:35:45.365Z,64.60
2018-09-03T04:36:17.206Z,65.10
2018-09-03T04:36:49.050Z,64.80
2018-09-03T04:37:20.973Z,65.10
2018-09-03T04:37:52.794Z,65.10
2018-09-03T04:38:24.790Z,65.50
2018-09-03T04:38:56.586Z,65.80
2018-09-03T04:39:28.530Z,65.70
2018-09-03T04:40:00.363Z,66.00
2018-09-03T04:40:32.640Z,65.50
2018-09-03T04:41:04.666Z,65.80
2018-09-03T04:41:36.655Z,64.80
2018-09-03T04:42:08.478Z,65.70
2018-09-03T04:42:40.346Z,65.30
2018-09-03T04:43:12.155Z,65.60
2018-09-03T04:43:43.980Z,65.60
2018-09-03T04:44:15.823Z,65.50
2018-09-03T04:44:47.621Z,65.60
2018-09-03T04:45:19.449Z,65.70
2018-09-03T04:45:51.280Z,65.80
2018-09-03T04:46:23.151Z,65.70
2018-09-03T04:46:54.951Z,65.60
2018-09-03T04:47:26.830Z,65.60
2018-09-03T04:47:58.701Z,65.40
2018-09-03T04:48:30.650Z,65.80
2018-09-03T04:49:02.509Z,66.00
2018-09-03T04:49:34.329Z,65.90
2018-09-03T04:50:06.134Z,65.00
2018-09-03T04:50:37.985Z,65.80
2018-09-03T04:51:10.051Z,65.50
2018-09-03T04:51:41.910Z,65.90
2018-09-03T04:52:13.729Z,65.50
2018-09-03T04:52:45.681Z,65.90
2018-09-03T04:53:17.529Z,65.70
2018-09-03T04:53:49.341Z,65.80
2018-09-03T04:54:21.134Z,65.60
2018-09-03T04:54:53.017Z,65.50
2018-09-03T04:55:25.066Z,65.60
2018-09-03T04:55:57.083Z,65.30
2018-09-03T04:56:29.135Z,65.40
2018-09-03T04:57:01.073Z,65.20
2018-09-03T04:57:33.295Z,65.50
2018-09-03T04:58:05.188Z,65.30
2018-09-03T04:58:36.996Z,65.20
2018-09-03T04:59:08.994Z,65.60
2018-09-03T04:59:40.980Z,65.50
2018-09-03T05:00:12.809Z,65.30
2018-09-03T05:00:44.820Z,65.20
2018-09-03T05:01:16.697Z,65.30
2018-09-03T05:01:48.722Z,65.20
2018-09-03T05:02:20.570Z,65.30
2018-09-03T05:02:52.640Z,64.30
2018-09-03T05:03:24.504Z,65.40
2018-09-03T05:03:56.528Z,65.30
2018-09-03T05:04:28.375Z,65.10
2018-09-03T05:05:00.200Z,65.70
2018-09-03T05:05:32.145Z,65.20
2018-09-03T05:06:04.133Z,65.60
2018-09-03T05:06:36.177Z,65.80
2018-09-03T05:07:08.570Z,65.70
2018-09-03T05:07:40.385Z,65.50
2018-09-03T05:08:12.233Z,65.80
2018-09-03T05:08:44.064Z,65.80
2018-09-03T05:09:16.050Z,65.90
2018-09-03T05:09:47.980Z,65.60
2018-09-03T05:10:19.903Z,65.20
2018-09-03T05:10:51.872Z,65.40
2018-09-03T05:11:23.709Z,65.70
2018-09-03T05:11:55.568Z,65.00
2018-09-03T05:12:27.521Z,65.40
2018-09-03T05:12:59.480Z,65.30
2018-09-03T05:13:31.275Z,65.20
2018-09-03T05:14:03.275Z,65.80
2018-09-03T05:14:35.186Z,65.70
2018-09-03T05:15:07.148Z,65.90
2018-09-03T05:15:39.249Z,65.50
2018-09-03T05:16:11.222Z,65.50
2018-09-03T05:16:43.062Z,65.60
2018-09-03T05:17:14.874Z,65.70
2018-09-03T05:17:46.718Z,65.70
2018-09-03T05:18:18.555Z,65.60
2018-09-03T05:18:50.476Z,65.30
2018-09-03T05:19:22.271Z,65.60
2018-09-03T05:19:54.168Z,65.20
2018-09-03T05:20:25.956Z,65.10
2018-09-03T05:20:57.799Z,65.60
2018-09-03T05:21:29.626Z,65.50
2018-09-03T05:22:01.515Z,65.40
2018-09-03T05:22:33.290Z,65.40
2018-09-03T05:23:05.116Z,65.50
2018-09-03T05:23:37.039Z,65.60
2018-09-03T05:24:08.901Z,65.50
2018-09-03T05:24:40.741Z,65.50
2018-09-03T05:25:12.700Z,65.90
2018-09-03T05:25:44.540Z,65.40
2018-09-03T05:26:16.359Z,65.30
2018-09-03T05:26:48.352Z,65.30
2018-09-03T05:27:20.431Z,64.90
2018-09-03T05:27:52.356Z,64.80
2018-09-03T05:28:24.220Z,65.10
2018-09-03T05:28:56.590Z,65.50
2018-09-03T05:29:28.419Z,65.20
2018-09-03T05:30:00.351Z,64.90
2018-09-03T05:30:32.331Z,65.40
2018-09-03T05:31:04.180Z,65.60
2018-09-03T05:31:36.018Z,65.40
2018-09-03T05:32:07.819Z,65.50
2018-09-03T05:32:39.911Z,65.60
2018-09-03T05:33:11.731Z,65.30
2018-09-03T05:33:43.528Z,65.30
2018-09-03T05:34:15.624Z,65.60
2018-09-03T05:34:47.489Z,65.50
2018-09-03T05:35:19.480Z,65.20
2018-09-03T05:35:51.413Z,65.50
2018-09-03T05:36:23.320Z,64.80
2018-09-03T05:36:55.120Z,65.50
2018-09-03T05:37:26.961Z,65.40
2018-09-03T05:37:58.750Z,65.70
2018-09-03T05:38:30.763Z,65.70
2018-09-03T05:39:02.565Z,65.40
2018-09-03T05:39:34.410Z,65.70
2018-09-03T05:40:06.535Z,65.50
2018-09-03T05:40:38.382Z,65.40
2018-09-03T05:41:10.284Z,65.70
2018-09-03T05:41:42.256Z,65.40
2018-09-03T05:42:14.154Z,65.60
2018-09-03T05:42:46.161Z,65.50
2018-09-03T05:43:18.054Z,65.60
2018-09-03T05:43:49.999Z,65.20
2018-09-03T05:44:22.002Z,65.60
2018-09-03T05:44:53.894Z,65.50
2018-09-03T05:45:25.708Z,65.00
2018-09-03T05:45:57.685Z,66.20
2018-09-03T05:46:29.515Z,65.50
2018-09-03T05:47:01.321Z,66.00
2018-09-03T05:47:33.168Z,65.60
2018-09-03T05:48:05.011Z,65.60
2018-09-03T05:48:36.883Z,65.60
2018-09-03T05:49:08.903Z,65.30
2018-09-03T05:49:40.963Z,65.80
2018-09-03T05:50:12.967Z,65.60
2018-09-03T05:50:45.269Z,65.40
2018-09-03T05:51:17.327Z,65.60
2018-09-03T05:51:49.381Z,65.30
2018-09-03T05:52:21.177Z,65.60
2018-09-03T05:52:53.171Z,65.60
2018-09-03T05:53:25.021Z,65.40
2018-09-03T05:53:56.973Z,65.70
2018-09-03T05:54:28.798Z,65.00
2018-09-03T05:55:00.620Z,65.40
2018-09-03T05:55:32.601Z,65.50
2018-09-03T05:56:04.468Z,65.40
2018-09-03T05:56:36.349Z,66.00
2018-09-03T05:57:08.211Z,65.40
2018-09-03T05:57:40.001Z,65.40
2018-09-03T05:58:11.803Z,65.40
2018-09-03T05:58:43.690Z,65.70
2018-09-03T05:59:15.640Z,65.40
2018-09-03T05:59:47.849Z,65.30
2018-09-03T06:00:19.977Z,65.60
2018-09-03T06:00:51.878Z,65.40
2018-09-03T06:01:23.688Z,65.80
2018-09-03T06:01:55.551Z,65.60
2018-09-03T06:02:27.359Z,65.40
2018-09-03T06:02:59.310Z,65.10
2018-09-03T06:03:31.117Z,64.80
2018-09-03T06:04:03.199Z,65.10
2018-09-03T06:04:35.091Z,65.20
2018-09-03T06:05:07.261Z,64.80
2018-09-03T06:05:39.164Z,65.10
2018-09-03T06:06:10.981Z,64.70
2018-09-03T06:06:42.837Z,65.10
2018-09-03T06:07:14.745Z,65.00
2018-09-03T06:07:46.592Z,65.20
2018-09-03T06:08:18.400Z,65.30
2018-09-03T06:08:50.532Z,65.20
2018-09-03T06:09:22.441Z,65.10
2018-09-03T06:09:54.391Z,65.30
2018-09-03T06:10:26.365Z,64.90
2018-09-03T06:10:58.346Z,65.30
2018-09-03T06:11:30.777Z,65.30
2018-09-03T06:12:02.702Z,65.00
2018-09-03T06:12:34.524Z,65.30
2018-09-03T06:13:06.626Z,65.40
2018-09-03T06:13:38.576Z,65.60
2018-09-03T06:14:10.430Z,65.40
2018-09-03T06:14:42.475Z,65.60
2018-09-03T06:15:14.330Z,65.40
2018-09-03T06:15:46.172Z,65.20
2018-09-03T06:16:18.022Z,65.40
2018-09-03T06:16:50.069Z,65.10
2018-09-03T06:17:21.974Z,65.20
2018-09-03T06:17:53.962Z,65.20
2018-09-03T06:18:25.922Z,65.00
2018-09-03T06:18:57.780Z,65.20
2018-09-03T06:19:29.734Z,65.30
2018-09-03T06:20:01.530Z,65.30
2018-09-03T06:20:33.385Z,65.20
2018-09-03T06:21:05.242Z,65.20
2018-09-03T06:21:37.102Z,65.20
2018-09-03T06:22:08.977Z,65.40
2018-09-03T06:22:40.764Z,65.00
2018-09-03T06:23:12.642Z,65.00
2018-09-03T06:23:44.508Z,65.20
2018-09-03T06:24:16.315Z,64.90
2018-09-03T06:24:48.315Z,64.90
2018-09-03T06:25:20.123Z,64.30
2018-09-03T06:25:51.924Z,65.00
2018-09-03T06:26:23.703Z,65.20
2018-09-03T06:26:55.489Z,65.10
2018-09-03T06:27:27.323Z,64.50
2018-09-03T06:27:59.120Z,65.20
2018-09-03T06:28:30.912Z,65.20
2018-09-03T06:29:02.701Z,65.20
2018-09-03T06:29:34.515Z,65.00
2018-09-03T06:30:06.320Z,65.10
2018-09-03T06:30:38.161Z,65.00
2018-09-03T06:31:09.938Z,64.90
2018-09-03T06:31:41.778Z,64.60
2018-09-03T06:32:13.568Z,64.80
2018-09-03T06:32:45.380Z,64.80
2018-09-03T06:33:17.393Z,64.80
2018-09-03T06:33:49.203Z,64.80
2018-09-03T06:34:21.072Z,64.90
2018-09-03T06:34:52.932Z,64.80
2018-09-03T06:35:24.716Z,65.70
2018-09-03T06:35:56.497Z,64.50
2018-09-03T06:36:28.675Z,64.70
2018-09-03T06:37:00.475Z,64.90
2018-09-03T06:37:32.270Z,64.70
2018-09-03T06:38:04.132Z,64.90
2018-09-03T06:38:36.155Z,65.10
2018-09-03T06:39:08.054Z,65.00
2018-09-03T06:39:39.988Z,65.60
2018-09-03T06:40:11.983Z,64.80
2018-09-03T06:40:43.853Z,64.50
2018-09-03T06:41:15.778Z,65.00
2018-09-03T06:41:47.714Z,64.80
2018-09-03T06:42:19.643Z,64.60
2018-09-03T06:42:51.504Z,64.40
2018-09-03T06:43:23.333Z,64.50
2018-09-03T06:43:55.212Z,64.70
2018-09-03T06:44:27.166Z,65.00
2018-09-03T06:44:58.964Z,64.90
2018-09-03T06:45:30.916Z,64.80
2018-09-03T06:46:02.701Z,64.90
2018-09-03T06:46:34.473Z,65.00
2018-09-03T06:47:06.384Z,64.80
2018-09-03T06:47:38.193Z,65.40
2018-09-03T06:48:10.038Z,64.70
2018-09-03T06:48:41.936Z,64.90
2018-09-03T06:49:13.782Z,64.00
2018-09-03T06:49:45.632Z,64.50
2018-09-03T06:50:17.483Z,64.80
2018-09-03T06:50:49.344Z,65.00